ETIH

Details ICAO ETIH
Name HOHENFELS AAF
Region Germany - Military
Timezone Europe/Berlin (UTC+1.0)
Plans Departing 1
Arriving 2
Stats Elevation 1,455 ft / 443 m (AMSL)
Location 49.218056° 11.836111°
Runways 1
Magnetic Variation 3.205° E
Sunrise 2017-12-18 07:04:37 UTC / 2017-12-18 08:04:37 Local
Sunset 2017-12-18 15:16:36 UTC / 2017-12-18 16:16:36 Local
Advertisement - Login to hide

Runways

ID Width Length Bearing (true) Bearing (mag) Surface Threshold Offset Overrun Length
09 72 ft / 22 m 2,119 ft / 646 m 90.00° 86.79° Asphalt 0 ft / 0 m 0 ft / 0 m
27 72 ft / 22 m 2,119 ft / 646 m 270.00° 266.79° Asphalt 0 ft / 0 m 0 ft / 0 m

Map

Weather


0- 5 10 15 20 25 30 35+ Temperature / ° C

Clouds and Precipitation
Forecast for 2017-12-18 18:00 UTC. Updated 2 hours ago

Ground ~20,000 ft ~40,000 ft Winds

METAR

ETIH 181456Z AUTO 14003KT 9999 FEW020 OVC036 01/M01 A3023 RMK AO2 SLPNO T00061015 52010 $

TAF

Not found

Frequencies

Tower 120.65 MHz MUNCHEN INFO
Tower 122.10 MHz TWR
Warning: Do not use this data for real-world aviation or navigation. No guarantee of current accuracy is given.